sensor_id;sensor_type;location;lat;lon;timestamp;temperature;humidity
13686;DHT22;6915;48.296;8.874;2023-06-10T00:00:07;13.40;99.90
13686;DHT22;6915;48.296;8.874;2023-06-10T00:02:36;13.30;99.90
13686;DHT22;6915;48.296;8.874;2023-06-10T00:05:06;13.40;99.90
13686;DHT22;6915;48.296;8.874;2023-06-10T00:07:35;13.40;99.90
13686;DHT22;6915;48.296;8.874;2023-06-10T00:10:06;13.40;99.90
13686;DHT22;6915;48.296;8.874;2023-06-10T00:12:35;13.50;99.90
13686;DHT22;6915;48.296;8.874;2023-06-10T00:15:06;13.50;99.90
13686;DHT22;6915;48.296;8.874;2023-06-10T00:17:47;13.50;99.90
13686;DHT22;6915;48.296;8.874;2023-06-10T00:20:24;13.60;99.90
13686;DHT22;6915;48.296;8.874;2023-06-10T00:22:53;13.50;99.90
13686;DHT22;6915;48.296;8.874;2023-06-10T00:25:21;13.50;99.90
13686;DHT22;6915;48.296;8.874;2023-06-10T00:27:50;13.40;99.90
13686;DHT22;6915;48.296;8.874;2023-06-10T00:30:23;13.40;99.90
13686;DHT22;6915;48.296;8.874;2023-06-10T00:32:52;13.40;99.90
13686;DHT22;6915;48.296;8.874;2023-06-10T00:35:21;13.40;99.90
13686;DHT22;6915;48.296;8.874;2023-06-10T00:37:50;13.30;99.90
13686;DHT22;6915;48.296;8.874;2023-06-10T00:40:19;13.10;99.90
13686;DHT22;6915;48.296;8.874;2023-06-10T00:42:47;13.10;99.90
13686;DHT22;6915;48.296;8.874;2023-06-10T00:45:16;13.00;99.90
13686;DHT22;6915;48.296;8.874;2023-06-10T00:47:47;13.10;99.90
13686;DHT22;6915;48.296;8.874;2023-06-10T00:50:16;13.10;99.90
13686;DHT22;6915;48.296;8.874;2023-06-10T00:52:44;13.10;99.90
13686;DHT22;6915;48.296;8.874;2023-06-10T00:55:16;13.10;99.90
13686;DHT22;6915;48.296;8.874;2023-06-10T00:57:46;12.90;99.90
13686;DHT22;6915;48.296;8.874;2023-06-10T01:00:17;12.80;99.90
13686;DHT22;6915;48.296;8.874;2023-06-10T01:02:47;12.70;99.90
13686;DHT22;6915;48.296;8.874;2023-06-10T01:05:16;12.70;99.90
13686;DHT22;6915;48.296;8.874;2023-06-10T01:07:50;12.80;99.90
13686;DHT22;6915;48.296;8.874;2023-06-10T01:10:24;12.60;99.90
13686;DHT22;6915;48.296;8.874;2023-06-10T01:13:00;12.60;99.90
13686;DHT22;6915;48.296;8.874;2023-06-10T01:15:31;12.70;99.90
13686;DHT22;6915;48.296;8.874;2023-06-10T01:18:02;12.70;99.90
13686;DHT22;6915;48.296;8.874;2023-06-10T01:20:34;12.80;99.90
13686;DHT22;6915;48.296;8.874;2023-06-10T01:23:05;12.80;99.90
13686;DHT22;6915;48.296;8.874;2023-06-10T01:25:37;12.60;99.90
13686;DHT22;6915;48.296;8.874;2023-06-10T01:28:10;12.40;99.90
13686;DHT22;6915;48.296;8.874;2023-06-10T01:30:47;12.30;99.90
13686;DHT22;6915;48.296;8.874;2023-06-10T01:33:18;12.50;99.90
13686;DHT22;6915;48.296;8.874;2023-06-10T01:35:50;12.50;99.90
13686;DHT22;6915;48.296;8.874;2023-06-10T01:38:21;12.50;99.90
13686;DHT22;6915;48.296;8.874;2023-06-10T01:40:50;12.50;99.90
13686;DHT22;6915;48.296;8.874;2023-06-10T01:43:22;12.60;99.90
13686;DHT22;6915;48.296;8.874;2023-06-10T01:45:51;12.30;99.90
13686;DHT22;6915;48.296;8.874;2023-06-10T01:48:19;12.30;99.90
13686;DHT22;6915;48.296;8.874;2023-06-10T01:50:48;12.30;99.90
13686;DHT22;6915;48.296;8.874;2023-06-10T01:53:16;12.20;99.90
13686;DHT22;6915;48.296;8.874;2023-06-10T01:55:46;12.30;99.90
13686;DHT22;6915;48.296;8.874;2023-06-10T01:58:15;12.20;99.90
13686;DHT22;6915;48.296;8.874;2023-06-10T02:00:44;12.10;99.90
13686;DHT22;6915;48.296;8.874;2023-06-10T02:03:12;12.10;99.90
13686;DHT22;6915;48.296;8.874;2023-06-10T02:05:41;12.10;99.90
13686;DHT22;6915;48.296;8.874;2023-06-10T02:08:10;12.10;99.90
13686;DHT22;6915;48.296;8.874;2023-06-10T02:10:38;12.00;99.90
13686;DHT22;6915;48.296;8.874;2023-06-10T02:13:09;12.10;99.90
13686;DHT22;6915;48.296;8.874;2023-06-10T02:15:38;12.10;99.90
13686;DHT22;6915;48.296;8.874;2023-06-10T02:18:07;12.10;99.90
13686;DHT22;6915;48.296;8.874;2023-06-10T02:20:37;12.10;99.90
13686;DHT22;6915;48.296;8.874;2023-06-10T02:23:06;12.10;99.90
13686;DHT22;6915;48.296;8.874;2023-06-10T02:25:35;11.90;99.90
13686;DHT22;6915;48.296;8.874;2023-06-10T02:28:03;11.90;99.90
13686;DHT22;6915;48.296;8.874;2023-06-10T02:30:34;12.00;99.90
13686;DHT22;6915;48.296;8.874;2023-06-10T02:33:03;11.90;99.90
13686;DHT22;6915;48.296;8.874;2023-06-10T02:35:32;12.00;99.90
13686;DHT22;6915;48.296;8.874;2023-06-10T02:38:01;12.00;99.90
13686;DHT22;6915;48.296;8.874;2023-06-10T02:40:30;12.00;99.90
13686;DHT22;6915;48.296;8.874;2023-06-10T02:42:58;12.00;99.90
13686;DHT22;6915;48.296;8.874;2023-06-10T02:45:27;12.00;99.90
13686;DHT22;6915;48.296;8.874;2023-06-10T02:47:57;12.00;99.90
13686;DHT22;6915;48.296;8.874;2023-06-10T02:50:26;12.00;99.90
13686;DHT22;6915;48.296;8.874;2023-06-10T02:52:54;12.00;99.90
13686;DHT22;6915;48.296;8.874;2023-06-10T02:55:23;11.90;99.90
13686;DHT22;6915;48.296;8.874;2023-06-10T02:57:53;11.90;99.90
13686;DHT22;6915;48.296;8.874;2023-06-10T03:00:22;11.90;99.90
13686;DHT22;6915;48.296;8.874;2023-06-10T03:02:51;11.80;99.90
13686;DHT22;6915;48.296;8.874;2023-06-10T03:05:25;11.80;99.90
13686;DHT22;6915;48.296;8.874;2023-06-10T03:07:54;11.70;99.90
13686;DHT22;6915;48.296;8.874;2023-06-10T03:10:23;11.60;99.90
13686;DHT22;6915;48.296;8.874;2023-06-10T03:12:51;11.50;99.90
13686;DHT22;6915;48.296;8.874;2023-06-10T03:15:20;11.50;99.90
13686;DHT22;6915;48.296;8.874;2023-06-10T03:17:49;11.60;99.90
13686;DHT22;6915;48.296;8.874;2023-06-10T03:20:18;11.50;99.90
13686;DHT22;6915;48.296;8.874;2023-06-10T03:22:48;11.50;99.90
13686;DHT22;6915;48.296;8.874;2023-06-10T03:25:17;11.50;99.90
13686;DHT22;6915;48.296;8.874;2023-06-10T03:27:46;11.50;99.90
13686;DHT22;6915;48.296;8.874;2023-06-10T03:30:15;11.50;99.90
13686;DHT22;6915;48.296;8.874;2023-06-10T03:32:45;11.50;99.90
13686;DHT22;6915;48.296;8.874;2023-06-10T03:35:14;11.60;99.90
13686;DHT22;6915;48.296;8.874;2023-06-10T03:37:42;11.60;99.90
13686;DHT22;6915;48.296;8.874;2023-06-10T03:40:13;11.70;99.90
13686;DHT22;6915;48.296;8.874;2023-06-10T03:42:42;11.70;99.90
13686;DHT22;6915;48.296;8.874;2023-06-10T03:45:12;11.70;99.90
13686;DHT22;6915;48.296;8.874;2023-06-10T03:47:41;11.70;99.90
13686;DHT22;6915;48.296;8.874;2023-06-10T03:50:09;11.80;99.90
13686;DHT22;6915;48.296;8.874;2023-06-10T03:52:40;11.80;99.90
13686;DHT22;6915;48.296;8.874;2023-06-10T03:55:09;11.90;99.90
13686;DHT22;6915;48.296;8.874;2023-06-10T03:57:40;12.20;99.90
13686;DHT22;6915;48.296;8.874;2023-06-10T04:00:10;12.50;99.90
13686;DHT22;6915;48.296;8.874;2023-06-10T04:02:39;12.80;99.90
13686;DHT22;6915;48.296;8.874;2023-06-10T04:05:13;13.40;99.90
13686;DHT22;6915;48.296;8.874;2023-06-10T04:07:42;13.70;99.90
13686;DHT22;6915;48.296;8.874;2023-06-10T04:10:11;14.20;99.90
13686;DHT22;6915;48.296;8.874;2023-06-10T04:12:41;14.50;99.90
13686;DHT22;6915;48.296;8.874;2023-06-10T04:15:11;15.00;99.90
13686;DHT22;6915;48.296;8.874;2023-06-10T04:17:42;15.40;99.90
13686;DHT22;6915;48.296;8.874;2023-06-10T04:20:12;15.80;99.90
13686;DHT22;6915;48.296;8.874;2023-06-10T04:22:41;16.10;99.90
13686;DHT22;6915;48.296;8.874;2023-06-10T04:25:11;16.40;99.90
13686;DHT22;6915;48.296;8.874;2023-06-10T04:27:42;16.70;99.90
13686;DHT22;6915;48.296;8.874;2023-06-10T04:30:11;16.90;99.90
13686;DHT22;6915;48.296;8.874;2023-06-10T04:32:40;17.20;99.90
13686;DHT22;6915;48.296;8.874;2023-06-10T04:35:10;17.30;99.90
13686;DHT22;6915;48.296;8.874;2023-06-10T04:37:39;17.60;99.90
13686;DHT22;6915;48.296;8.874;2023-06-10T04:40:07;18.00;99.90
13686;DHT22;6915;48.296;8.874;2023-06-10T04:42:36;18.10;99.90
13686;DHT22;6915;48.296;8.874;2023-06-10T04:45:07;18.40;99.90
13686;DHT22;6915;48.296;8.874;2023-06-10T04:47:36;18.60;99.90
13686;DHT22;6915;48.296;8.874;2023-06-10T04:50:07;18.80;99.90
13686;DHT22;6915;48.296;8.874;2023-06-10T04:52:36;19.00;99.90
13686;DHT22;6915;48.296;8.874;2023-06-10T04:55:06;19.20;99.90
13686;DHT22;6915;48.296;8.874;2023-06-10T04:57:35;19.70;99.90
13686;DHT22;6915;48.296;8.874;2023-06-10T05:00:05;19.40;99.90
13686;DHT22;6915;48.296;8.874;2023-06-10T05:02:37;19.80;99.90
13686;DHT22;6915;48.296;8.874;2023-06-10T05:05:08;20.10;99.90
13686;DHT22;6915;48.296;8.874;2023-06-10T05:07:39;20.20;99.90
13686;DHT22;6915;48.296;8.874;2023-06-10T05:10:09;20.00;99.90
13686;DHT22;6915;48.296;8.874;2023-06-10T05:12:37;19.70;99.90
13686;DHT22;6915;48.296;8.874;2023-06-10T05:15:09;19.70;99.90
13686;DHT22;6915;48.296;8.874;2023-06-10T05:17:39;19.80;99.90
13686;DHT22;6915;48.296;8.874;2023-06-10T05:20:09;20.10;99.90
13686;DHT22;6915;48.296;8.874;2023-06-10T05:22:37;20.30;99.90
13686;DHT22;6915;48.296;8.874;2023-06-10T05:25:07;20.50;99.90
13686;DHT22;6915;48.296;8.874;2023-06-10T05:27:36;20.70;99.90
13686;DHT22;6915;48.296;8.874;2023-06-10T05:30:06;20.80;99.90
13686;DHT22;6915;48.296;8.874;2023-06-10T05:32:35;20.90;99.90
13686;DHT22;6915;48.296;8.874;2023-06-10T05:35:04;20.90;99.90
13686;DHT22;6915;48.296;8.874;2023-06-10T05:37:35;21.20;99.90
13686;DHT22;6915;48.296;8.874;2023-06-10T05:40:06;21.20;99.90
13686;DHT22;6915;48.296;8.874;2023-06-10T05:42:35;21.10;99.90
13686;DHT22;6915;48.296;8.874;2023-06-10T05:45:05;21.10;99.90
13686;DHT22;6915;48.296;8.874;2023-06-10T05:47:35;21.20;99.90
13686;DHT22;6915;48.296;8.874;2023-06-10T05:50:04;21.30;99.90
13686;DHT22;6915;48.296;8.874;2023-06-10T05:52:34;21.30;99.90
13686;DHT22;6915;48.296;8.874;2023-06-10T05:55:03;21.00;99.90
13686;DHT22;6915;48.296;8.874;2023-06-10T05:57:32;20.70;99.90
13686;DHT22;6915;48.296;8.874;2023-06-10T06:00:00;20.60;99.90
13686;DHT22;6915;48.296;8.874;2023-06-10T06:02:29;20.50;99.90
13686;DHT22;6915;48.296;8.874;2023-06-10T06:04:59;20.50;99.90
13686;DHT22;6915;48.296;8.874;2023-06-10T06:07:28;20.50;99.90
13686;DHT22;6915;48.296;8.874;2023-06-10T06:09:57;20.80;99.90
13686;DHT22;6915;48.296;8.874;2023-06-10T06:12:25;20.80;99.90
13686;DHT22;6915;48.296;8.874;2023-06-10T06:14:54;20.80;99.90
13686;DHT22;6915;48.296;8.874;2023-06-10T06:17:22;20.80;99.90
13686;DHT22;6915;48.296;8.874;2023-06-10T06:19:51;20.80;99.90
13686;DHT22;6915;48.296;8.874;2023-06-10T06:22:21;20.90;99.90
13686;DHT22;6915;48.296;8.874;2023-06-10T06:24:50;20.90;99.90
13686;DHT22;6915;48.296;8.874;2023-06-10T06:27:18;21.00;99.90
13686;DHT22;6915;48.296;8.874;2023-06-10T06:29:48;21.20;99.90
13686;DHT22;6915;48.296;8.874;2023-06-10T06:32:18;21.20;99.90
13686;DHT22;6915;48.296;8.874;2023-06-10T06:34:48;21.30;99.90
13686;DHT22;6915;48.296;8.874;2023-06-10T06:37:23;21.40;99.90
13686;DHT22;6915;48.296;8.874;2023-06-10T06:39:52;21.70;99.90
13686;DHT22;6915;48.296;8.874;2023-06-10T06:42:21;21.90;99.90
13686;DHT22;6915;48.296;8.874;2023-06-10T06:44:50;21.80;99.90
13686;DHT22;6915;48.296;8.874;2023-06-10T06:47:19;21.90;99.90
13686;DHT22;6915;48.296;8.874;2023-06-10T06:49:48;22.10;99.90
13686;DHT22;6915;48.296;8.874;2023-06-10T06:52:19;21.80;99.90
13686;DHT22;6915;48.296;8.874;2023-06-10T06:54:50;21.90;99.90
13686;DHT22;6915;48.296;8.874;2023-06-10T06:57:19;21.90;99.90
13686;DHT22;6915;48.296;8.874;2023-06-10T06:59:48;21.80;99.90
13686;DHT22;6915;48.296;8.874;2023-06-10T07:02:16;21.80;99.90
13686;DHT22;6915;48.296;8.874;2023-06-10T07:04:46;21.70;99.90
13686;DHT22;6915;48.296;8.874;2023-06-10T07:07:16;21.90;99.90
13686;DHT22;6915;48.296;8.874;2023-06-10T07:09:45;22.20;99.90
13686;DHT22;6915;48.296;8.874;2023-06-10T07:12:15;22.10;99.90
13686;DHT22;6915;48.296;8.874;2023-06-10T07:14:45;21.70;99.90
13686;DHT22;6915;48.296;8.874;2023-06-10T07:17:14;21.40;99.90
13686;DHT22;6915;48.296;8.874;2023-06-10T07:19:43;21.40;99.90
13686;DHT22;6915;48.296;8.874;2023-06-10T07:22:12;21.50;99.90
13686;DHT22;6915;48.296;8.874;2023-06-10T07:24:40;21.50;99.90
13686;DHT22;6915;48.296;8.874;2023-06-10T07:27:11;21.40;99.90
13686;DHT22;6915;48.296;8.874;2023-06-10T07:29:41;21.20;99.90
13686;DHT22;6915;48.296;8.874;2023-06-10T07:32:10;21.10;99.90
13686;DHT22;6915;48.296;8.874;2023-06-10T07:34:39;21.30;99.90
13686;DHT22;6915;48.296;8.874;2023-06-10T07:37:08;21.50;99.90
13686;DHT22;6915;48.296;8.874;2023-06-10T07:39:35;21.50;99.90
13686;DHT22;6915;48.296;8.874;2023-06-10T07:42:05;21.90;99.90
13686;DHT22;6915;48.296;8.874;2023-06-10T07:44:34;22.20;99.90
13686;DHT22;6915;48.296;8.874;2023-06-10T07:47:06;22.20;99.90
13686;DHT22;6915;48.296;8.874;2023-06-10T07:49:35;22.40;99.90
13686;DHT22;6915;48.296;8.874;2023-06-10T07:52:05;22.20;99.90
13686;DHT22;6915;48.296;8.874;2023-06-10T07:54:34;22.20;99.90
13686;DHT22;6915;48.296;8.874;2023-06-10T07:57:04;22.10;99.90
13686;DHT22;6915;48.296;8.874;2023-06-10T07:59:38;22.20;99.90
13686;DHT22;6915;48.296;8.874;2023-06-10T08:02:09;22.30;99.90
13686;DHT22;6915;48.296;8.874;2023-06-10T08:04:38;22.70;99.90
13686;DHT22;6915;48.296;8.874;2023-06-10T08:07:07;22.70;99.90
13686;DHT22;6915;48.296;8.874;2023-06-10T08:09:35;22.90;99.90
13686;DHT22;6915;48.296;8.874;2023-06-10T08:12:06;22.90;99.90
13686;DHT22;6915;48.296;8.874;2023-06-10T08:14:35;22.80;99.90
13686;DHT22;6915;48.296;8.874;2023-06-10T08:17:06;23.10;99.90
13686;DHT22;6915;48.296;8.874;2023-06-10T08:19:35;23.40;99.90
13686;DHT22;6915;48.296;8.874;2023-06-10T08:22:03;23.40;99.90
13686;DHT22;6915;48.296;8.874;2023-06-10T08:24:32;23.80;99.90
13686;DHT22;6915;48.296;8.874;2023-06-10T08:27:01;23.80;99.90
13686;DHT22;6915;48.296;8.874;2023-06-10T08:29:29;23.80;99.90
13686;DHT22;6915;48.296;8.874;2023-06-10T08:31:59;23.70;99.90
13686;DHT22;6915;48.296;8.874;2023-06-10T08:34:32;23.60;99.90
13686;DHT22;6915;48.296;8.874;2023-06-10T08:37:04;23.90;99.90
13686;DHT22;6915;48.296;8.874;2023-06-10T08:39:34;24.10;99.90
13686;DHT22;6915;48.296;8.874;2023-06-10T08:42:16;24.10;99.90
13686;DHT22;6915;48.296;8.874;2023-06-10T08:44:53;24.30;99.90
13686;DHT22;6915;48.296;8.874;2023-06-10T08:47:24;24.70;99.90
13686;DHT22;6915;48.296;8.874;2023-06-10T08:49:55;24.30;99.90
13686;DHT22;6915;48.296;8.874;2023-06-10T08:52:32;24.40;99.90
13686;DHT22;6915;48.296;8.874;2023-06-10T08:55:08;24.10;99.90
13686;DHT22;6915;48.296;8.874;2023-06-10T08:57:39;24.00;99.90
13686;DHT22;6915;48.296;8.874;2023-06-10T09:00:08;24.20;99.90
13686;DHT22;6915;48.296;8.874;2023-06-10T09:02:37;23.90;99.90
13686;DHT22;6915;48.296;8.874;2023-06-10T09:05:09;24.00;99.90
13686;DHT22;6915;48.296;8.874;2023-06-10T09:07:39;24.20;99.90
13686;DHT22;6915;48.296;8.874;2023-06-10T09:10:09;24.50;99.90
13686;DHT22;6915;48.296;8.874;2023-06-10T09:12:39;23.80;99.90
13686;DHT22;6915;48.296;8.874;2023-06-10T09:15:09;23.90;99.90
13686;DHT22;6915;48.296;8.874;2023-06-10T09:17:39;24.20;99.90
13686;DHT22;6915;48.296;8.874;2023-06-10T09:20:12;24.00;99.90
13686;DHT22;6915;48.296;8.874;2023-06-10T09:22:43;24.10;99.90
13686;DHT22;6915;48.296;8.874;2023-06-10T09:25:13;24.30;99.90
13686;DHT22;6915;48.296;8.874;2023-06-10T09:27:50;24.20;99.90
13686;DHT22;6915;48.296;8.874;2023-06-10T09:30:30;24.40;99.90
13686;DHT22;6915;48.296;8.874;2023-06-10T09:33:00;24.40;99.90
13686;DHT22;6915;48.296;8.874;2023-06-10T09:35:32;24.50;99.90
13686;DHT22;6915;48.296;8.874;2023-06-10T09:38:01;24.90;99.90
13686;DHT22;6915;48.296;8.874;2023-06-10T09:40:30;24.90;99.90
13686;DHT22;6915;48.296;8.874;2023-06-10T09:43:00;25.20;99.90
13686;DHT22;6915;48.296;8.874;2023-06-10T09:45:32;25.40;99.90
13686;DHT22;6915;48.296;8.874;2023-06-10T09:48:00;25.40;99.90
13686;DHT22;6915;48.296;8.874;2023-06-10T09:50:34;25.00;99.90
13686;DHT22;6915;48.296;8.874;2023-06-10T09:53:09;25.00;99.90
13686;DHT22;6915;48.296;8.874;2023-06-10T09:55:39;25.40;99.90
13686;DHT22;6915;48.296;8.874;2023-06-10T09:58:12;25.80;99.90
13686;DHT22;6915;48.296;8.874;2023-06-10T10:00:41;26.00;99.90
13686;DHT22;6915;48.296;8.874;2023-06-10T10:03:09;25.70;99.90
13686;DHT22;6915;48.296;8.874;2023-06-10T10:05:40;25.70;99.90
13686;DHT22;6915;48.296;8.874;2023-06-10T10:08:10;25.40;99.90
13686;DHT22;6915;48.296;8.874;2023-06-10T10:10:39;24.60;99.90
13686;DHT22;6915;48.296;8.874;2023-06-10T10:13:08;24.30;99.90
13686;DHT22;6915;48.296;8.874;2023-06-10T10:15:37;24.60;99.90
13686;DHT22;6915;48.296;8.874;2023-06-10T10:18:11;24.90;99.90
13686;DHT22;6915;48.296;8.874;2023-06-10T10:20:49;25.00;99.90
13686;DHT22;6915;48.296;8.874;2023-06-10T10:23:24;25.60;99.90
13686;DHT22;6915;48.296;8.874;2023-06-10T10:25:54;25.60;99.90
13686;DHT22;6915;48.296;8.874;2023-06-10T10:28:25;25.50;99.90
13686;DHT22;6915;48.296;8.874;2023-06-10T10:31:02;25.30;99.90
13686;DHT22;6915;48.296;8.874;2023-06-10T10:33:40;25.50;99.90
13686;DHT22;6915;48.296;8.874;2023-06-10T10:36:11;25.50;99.90
13686;DHT22;6915;48.296;8.874;2023-06-10T10:38:41;25.30;99.90
13686;DHT22;6915;48.296;8.874;2023-06-10T10:41:10;25.30;99.90
13686;DHT22;6915;48.296;8.874;2023-06-10T10:43:39;25.40;99.90
13686;DHT22;6915;48.296;8.874;2023-06-10T10:46:13;25.50;99.90
13686;DHT22;6915;48.296;8.874;2023-06-10T10:48:43;25.90;99.90
13686;DHT22;6915;48.296;8.874;2023-06-10T10:51:14;26.00;99.90
13686;DHT22;6915;48.296;8.874;2023-06-10T10:53:44;25.90;99.90
13686;DHT22;6915;48.296;8.874;2023-06-10T10:56:15;26.30;99.90
13686;DHT22;6915;48.296;8.874;2023-06-10T10:59:03;26.30;99.90
13686;DHT22;6915;48.296;8.874;2023-06-10T11:01:43;26.40;99.90
13686;DHT22;6915;48.296;8.874;2023-06-10T11:04:13;26.10;99.90
13686;DHT22;6915;48.296;8.874;2023-06-10T11:06:55;26.00;99.90
13686;DHT22;6915;48.296;8.874;2023-06-10T11:09:34;25.80;99.90
13686;DHT22;6915;48.296;8.874;2023-06-10T11:12:03;25.90;99.90
13686;DHT22;6915;48.296;8.874;2023-06-10T11:14:33;26.30;99.90
13686;DHT22;6915;48.296;8.874;2023-06-10T11:17:02;26.00;99.90
13686;DHT22;6915;48.296;8.874;2023-06-10T11:19:46;25.40;99.90
13686;DHT22;6915;48.296;8.874;2023-06-10T11:22:19;25.20;99.90
13686;DHT22;6915;48.296;8.874;2023-06-10T11:24:52;24.80;99.90
13686;DHT22;6915;48.296;8.874;2023-06-10T11:27:21;24.40;99.90
13686;DHT22;6915;48.296;8.874;2023-06-10T11:30:20;24.60;99.90
13686;DHT22;6915;48.296;8.874;2023-06-10T11:32:52;24.60;99.90
13686;DHT22;6915;48.296;8.874;2023-06-10T11:35:22;25.10;99.90
13686;DHT22;6915;48.296;8.874;2023-06-10T11:37:53;25.60;99.90
13686;DHT22;6915;48.296;8.874;2023-06-10T11:40:22;26.00;99.90
13686;DHT22;6915;48.296;8.874;2023-06-10T11:42:51;26.50;99.90
13686;DHT22;6915;48.296;8.874;2023-06-10T11:45:20;26.40;99.90
13686;DHT22;6915;48.296;8.874;2023-06-10T11:47:58;26.00;99.90
13686;DHT22;6915;48.296;8.874;2023-06-10T11:50:30;25.80;99.90
13686;DHT22;6915;48.296;8.874;2023-06-10T11:53:00;25.40;99.90
13686;DHT22;6915;48.296;8.874;2023-06-10T11:55:41;25.00;99.90
13686;DHT22;6915;48.296;8.874;2023-06-10T12:16:22;26.50;99.90
13686;DHT22;6915;48.296;8.874;2023-06-10T12:18:51;26.10;99.90
13686;DHT22;6915;48.296;8.874;2023-06-10T12:21:32;25.70;99.90
13686;DHT22;6915;48.296;8.874;2023-06-10T12:24:04;25.70;99.90
13686;DHT22;6915;48.296;8.874;2023-06-10T12:26:40;26.20;99.90
13686;DHT22;6915;48.296;8.874;2023-06-10T12:29:22;25.90;99.90
13686;DHT22;6915;48.296;8.874;2023-06-10T12:32:03;25.90;99.90
13686;DHT22;6915;48.296;8.874;2023-06-10T12:34:35;25.60;99.90
13686;DHT22;6915;48.296;8.874;2023-06-10T12:37:09;25.40;99.90
13686;DHT22;6915;48.296;8.874;2023-06-10T12:39:41;26.00;99.90
13686;DHT22;6915;48.296;8.874;2023-06-10T12:42:13;26.10;99.90
13686;DHT22;6915;48.296;8.874;2023-06-10T12:44:42;26.00;99.90
13686;DHT22;6915;48.296;8.874;2023-06-10T12:47:13;26.00;99.90
13686;DHT22;6915;48.296;8.874;2023-06-10T12:49:42;26.30;99.90
13686;DHT22;6915;48.296;8.874;2023-06-10T12:52:11;26.00;99.90
13686;DHT22;6915;48.296;8.874;2023-06-10T12:54:42;25.50;99.90
13686;DHT22;6915;48.296;8.874;2023-06-10T12:57:18;25.90;99.90
13686;DHT22;6915;48.296;8.874;2023-06-10T12:59:47;26.10;99.90
13686;DHT22;6915;48.296;8.874;2023-06-10T13:02:23;26.20;99.90
13686;DHT22;6915;48.296;8.874;2023-06-10T13:04:52;26.50;99.90
13686;DHT22;6915;48.296;8.874;2023-06-10T13:07:24;26.40;99.90
13686;DHT22;6915;48.296;8.874;2023-06-10T13:09:53;26.70;99.90
13686;DHT22;6915;48.296;8.874;2023-06-10T13:12:22;27.00;99.90
13686;DHT22;6915;48.296;8.874;2023-06-10T13:14:50;27.10;99.90
13686;DHT22;6915;48.296;8.874;2023-06-10T13:17:20;26.80;99.90
13686;DHT22;6915;48.296;8.874;2023-06-10T13:19:49;26.90;99.90
13686;DHT22;6915;48.296;8.874;2023-06-10T13:22:18;26.50;99.90
13686;DHT22;6915;48.296;8.874;2023-06-10T13:24:47;25.70;99.90
13686;DHT22;6915;48.296;8.874;2023-06-10T13:27:16;25.20;99.90
13686;DHT22;6915;48.296;8.874;2023-06-10T13:29:44;25.20;99.90
13686;DHT22;6915;48.296;8.874;2023-06-10T13:32:13;25.00;99.90
13686;DHT22;6915;48.296;8.874;2023-06-10T13:34:43;25.00;99.90
13686;DHT22;6915;48.296;8.874;2023-06-10T13:37:12;25.00;99.90
13686;DHT22;6915;48.296;8.874;2023-06-10T13:39:41;25.00;99.90
13686;DHT22;6915;48.296;8.874;2023-06-10T13:42:10;25.00;99.90
13686;DHT22;6915;48.296;8.874;2023-06-10T13:44:39;25.60;99.90
13686;DHT22;6915;48.296;8.874;2023-06-10T13:47:08;26.10;99.90
13686;DHT22;6915;48.296;8.874;2023-06-10T13:49:37;26.50;99.90
13686;DHT22;6915;48.296;8.874;2023-06-10T13:52:09;26.80;99.90
13686;DHT22;6915;48.296;8.874;2023-06-10T13:54:37;27.00;99.90
13686;DHT22;6915;48.296;8.874;2023-06-10T13:57:07;26.70;99.90
13686;DHT22;6915;48.296;8.874;2023-06-10T13:59:38;26.80;99.90
13686;DHT22;6915;48.296;8.874;2023-06-10T14:02:08;26.40;99.90
13686;DHT22;6915;48.296;8.874;2023-06-10T14:04:37;26.10;99.90
13686;DHT22;6915;48.296;8.874;2023-06-10T14:07:08;26.10;99.90
13686;DHT22;6915;48.296;8.874;2023-06-10T14:09:36;25.90;99.90
13686;DHT22;6915;48.296;8.874;2023-06-10T14:12:06;25.60;99.90
13686;DHT22;6915;48.296;8.874;2023-06-10T14:14:36;25.40;99.90
13686;DHT22;6915;48.296;8.874;2023-06-10T14:17:05;25.30;99.90
13686;DHT22;6915;48.296;8.874;2023-06-10T14:19:34;25.20;99.90
13686;DHT22;6915;48.296;8.874;2023-06-10T14:22:02;25.30;99.90
13686;DHT22;6915;48.296;8.874;2023-06-10T14:24:33;25.30;99.90
13686;DHT22;6915;48.296;8.874;2023-06-10T14:27:02;25.40;99.90
13686;DHT22;6915;48.296;8.874;2023-06-10T14:29:30;25.80;99.90
13686;DHT22;6915;48.296;8.874;2023-06-10T14:32:01;25.80;99.90
13686;DHT22;6915;48.296;8.874;2023-06-10T14:34:29;25.90;99.90
13686;DHT22;6915;48.296;8.874;2023-06-10T14:37:00;26.00;99.90
13686;DHT22;6915;48.296;8.874;2023-06-10T14:39:30;26.20;99.90
13686;DHT22;6915;48.296;8.874;2023-06-10T14:41:59;26.40;99.90
13686;DHT22;6915;48.296;8.874;2023-06-10T14:44:28;26.60;99.90
13686;DHT22;6915;48.296;8.874;2023-06-10T14:46:56;26.60;99.90
13686;DHT22;6915;48.296;8.874;2023-06-10T14:49:27;26.70;99.90
13686;DHT22;6915;48.296;8.874;2023-06-10T14:51:55;26.80;99.90
13686;DHT22;6915;48.296;8.874;2023-06-10T14:54:24;27.00;99.90
13686;DHT22;6915;48.296;8.874;2023-06-10T14:56:53;27.10;99.90
13686;DHT22;6915;48.296;8.874;2023-06-10T14:59:23;27.20;99.90
13686;DHT22;6915;48.296;8.874;2023-06-10T15:01:52;27.40;99.90
13686;DHT22;6915;48.296;8.874;2023-06-10T15:04:20;27.60;99.90
13686;DHT22;6915;48.296;8.874;2023-06-10T15:06:49;27.60;99.90
13686;DHT22;6915;48.296;8.874;2023-06-10T15:09:18;27.60;99.90
13686;DHT22;6915;48.296;8.874;2023-06-10T15:11:47;27.70;99.90
13686;DHT22;6915;48.296;8.874;2023-06-10T15:14:16;27.70;99.90
13686;DHT22;6915;48.296;8.874;2023-06-10T15:16:46;28.00;99.90
13686;DHT22;6915;48.296;8.874;2023-06-10T15:19:14;28.00;99.90
13686;DHT22;6915;48.296;8.874;2023-06-10T15:21:43;27.60;99.90
13686;DHT22;6915;48.296;8.874;2023-06-10T15:24:12;27.20;99.90
13686;DHT22;6915;48.296;8.874;2023-06-10T15:26:40;26.90;99.90
13686;DHT22;6915;48.296;8.874;2023-06-10T15:29:09;27.00;99.90
13686;DHT22;6915;48.296;8.874;2023-06-10T15:31:38;26.40;99.90
13686;DHT22;6915;48.296;8.874;2023-06-10T15:34:08;25.80;99.90
13686;DHT22;6915;48.296;8.874;2023-06-10T15:36:37;25.60;99.90
13686;DHT22;6915;48.296;8.874;2023-06-10T15:39:06;25.90;99.90
13686;DHT22;6915;48.296;8.874;2023-06-10T15:41:35;26.30;99.90
13686;DHT22;6915;48.296;8.874;2023-06-10T15:44:04;26.30;99.90
13686;DHT22;6915;48.296;8.874;2023-06-10T15:46:35;26.50;99.90
13686;DHT22;6915;48.296;8.874;2023-06-10T15:49:03;26.80;99.90
13686;DHT22;6915;48.296;8.874;2023-06-10T15:51:33;26.80;99.90
13686;DHT22;6915;48.296;8.874;2023-06-10T15:54:02;26.60;99.90
13686;DHT22;6915;48.296;8.874;2023-06-10T15:56:31;26.60;99.90
13686;DHT22;6915;48.296;8.874;2023-06-10T15:59:00;26.50;99.90
13686;DHT22;6915;48.296;8.874;2023-06-10T16:01:29;26.80;99.90
13686;DHT22;6915;48.296;8.874;2023-06-10T16:03:57;26.80;99.90
13686;DHT22;6915;48.296;8.874;2023-06-10T16:06:26;26.80;99.90
13686;DHT22;6915;48.296;8.874;2023-06-10T16:08:56;26.90;99.90
13686;DHT22;6915;48.296;8.874;2023-06-10T16:11:25;27.30;99.90
13686;DHT22;6915;48.296;8.874;2023-06-10T16:13:54;27.20;99.90
13686;DHT22;6915;48.296;8.874;2023-06-10T16:16:23;26.60;99.90
13686;DHT22;6915;48.296;8.874;2023-06-10T16:18:52;26.10;99.90
13686;DHT22;6915;48.296;8.874;2023-06-10T16:21:21;25.80;99.90